createdAt,value
2019-01-17T00:03:16.363Z,4.18
2019-01-17T00:06:56.904Z,3.97
2019-01-17T00:10:16.419Z,3.94
2019-01-17T00:13:43.033Z,3.85
2019-01-17T00:17:08.820Z,3.89
2019-01-17T00:20:33.615Z,3.92
2019-01-17T00:23:49.824Z,4.04
2019-01-17T00:27:14.224Z,4.07
2019-01-17T00:30:40.402Z,4.19
2019-01-17T00:33:55.874Z,4.10
2019-01-17T00:37:14.337Z,4.37
2019-01-17T00:40:31.741Z,4.20
2019-01-17T00:43:56.150Z,4.27
2019-01-17T00:47:28.735Z,4.30
2019-01-17T00:50:57.588Z,4.18
2019-01-17T00:54:41.926Z,4.14
2019-01-17T00:58:22.577Z,4.28
2019-01-17T01:01:47.524Z,4.16
2019-01-17T01:05:13.164Z,4.14
2019-01-17T01:08:39.955Z,4.11
2019-01-17T01:12:05.316Z,4.08
2019-01-17T01:15:49.997Z,4.08
2019-01-17T01:19:11.104Z,3.97
2019-01-17T01:22:52.384Z,3.91
2019-01-17T01:26:21.208Z,3.97
2019-01-17T01:29:53.225Z,3.91
2019-01-17T01:33:37.059Z,3.89
2019-01-17T01:37:08.968Z,3.78
2019-01-17T01:40:29.066Z,3.81
2019-01-17T01:43:54.865Z,3.77
2019-01-17T01:47:13.800Z,3.85
2019-01-17T01:50:42.801Z,3.69
2019-01-17T01:53:49.676Z,3.73
2019-01-17T01:56:56.599Z,3.79
2019-01-17T02:00:03.503Z,3.80
2019-01-17T02:03:11.511Z,3.82
2019-01-17T02:06:23.118Z,3.77
2019-01-17T02:09:30.027Z,3.84
2019-01-17T02:12:36.998Z,3.80
2019-01-17T02:15:44.732Z,3.85
2019-01-17T02:18:51.990Z,3.81
2019-01-17T02:21:58.953Z,3.93
2019-01-17T02:25:06.140Z,3.90
2019-01-17T02:28:13.700Z,3.85
2019-01-17T02:31:20.851Z,3.93
2019-01-17T02:34:27.771Z,3.89
2019-01-17T02:37:34.664Z,3.94
2019-01-17T02:40:41.586Z,3.91
2019-01-17T02:43:48.607Z,3.98
2019-01-17T02:46:55.540Z,3.98
2019-01-17T02:50:02.423Z,4.01
2019-01-17T02:53:09.346Z,3.99
2019-01-17T02:56:16.656Z,3.96
2019-01-17T02:59:23.681Z,4.02
2019-01-17T03:02:31.161Z,4.02
2019-01-17T03:05:39.924Z,3.99
2019-01-17T03:08:46.816Z,4.01
2019-01-17T03:11:53.837Z,3.93
2019-01-17T03:15:00.730Z,3.97
2019-01-17T03:18:07.642Z,4.04
2019-01-17T03:21:15.052Z,3.99
2019-01-17T03:24:21.967Z,4.00
2019-01-17T03:27:28.852Z,3.97
2019-01-17T03:30:36.770Z,3.96
2019-01-17T03:33:43.683Z,4.06
2019-01-17T03:36:50.586Z,4.07
2019-01-17T03:39:57.482Z,4.07
2019-01-17T03:43:04.404Z,4.04
2019-01-17T03:46:11.345Z,4.04
2019-01-17T03:49:19.449Z,4.01
2019-01-17T03:52:26.383Z,4.19
2019-01-17T03:55:33.412Z,4.21
2019-01-17T03:58:40.331Z,4.19
2019-01-17T04:01:47.354Z,4.25
2019-01-17T04:04:54.253Z,4.12
2019-01-17T04:08:01.538Z,4.12
2019-01-17T04:11:08.491Z,4.13
2019-01-17T04:14:18.099Z,4.14
2019-01-17T04:17:25.070Z,4.14
2019-01-17T04:20:32.001Z,4.12
2019-01-17T04:23:38.884Z,4.08
2019-01-17T04:26:45.813Z,4.13
2019-01-17T04:29:52.693Z,4.10
2019-01-17T04:32:59.616Z,4.15
2019-01-17T04:36:06.515Z,4.05
2019-01-17T04:39:13.645Z,4.03
2019-01-17T04:42:20.521Z,4.08
2019-01-17T04:45:27.441Z,4.09
2019-01-17T04:48:34.348Z,4.16
2019-01-17T04:51:41.331Z,4.19
2019-01-17T04:54:48.212Z,4.23
2019-01-17T04:57:55.135Z,4.10
2019-01-17T05:01:02.153Z,4.13
2019-01-17T05:04:09.285Z,4.16
2019-01-17T05:07:24.075Z,4.09
2019-01-17T05:10:34.247Z,4.12
2019-01-17T05:13:41.267Z,4.11
2019-01-17T05:16:48.285Z,4.10
2019-01-17T05:19:55.168Z,4.07
2019-01-17T05:23:02.353Z,4.08
2019-01-17T05:26:09.238Z,4.07
2019-01-17T05:29:16.331Z,4.14
2019-01-17T05:32:23.209Z,4.09
2019-01-17T05:35:30.161Z,4.08
2019-01-17T05:38:37.118Z,4.04
2019-01-17T05:41:44.043Z,3.99
2019-01-17T05:44:51.134Z,4.03
2019-01-17T05:47:59.667Z,4.01
2019-01-17T05:51:06.539Z,3.99
2019-01-17T05:54:16.225Z,3.97
2019-01-17T05:57:23.204Z,3.92
2019-01-17T06:00:30.158Z,3.92
2019-01-17T06:03:37.030Z,3.89
2019-01-17T06:06:43.966Z,3.87
2019-01-17T06:09:51.988Z,3.90
2019-01-17T06:12:59.430Z,3.92
2019-01-17T06:16:06.684Z,3.90
2019-01-17T06:19:14.066Z,3.83
2019-01-17T06:22:20.982Z,3.82
2019-01-17T06:25:28.413Z,3.89
2019-01-17T06:28:35.564Z,3.90
2019-01-17T06:31:42.536Z,3.83
2019-01-17T06:34:49.500Z,3.81
2019-01-17T06:37:56.499Z,3.80
2019-01-17T06:41:03.371Z,3.84
2019-01-17T06:44:13.654Z,3.77
2019-01-17T06:47:20.707Z,3.82
2019-01-17T06:50:27.657Z,3.88
2019-01-17T06:53:34.559Z,3.88
2019-01-17T06:56:41.483Z,3.90
2019-01-17T06:59:48.358Z,3.87
2019-01-17T07:02:55.314Z,3.86
2019-01-17T07:06:02.239Z,3.84
2019-01-17T07:09:10.249Z,3.88
2019-01-17T07:12:17.343Z,3.91
2019-01-17T07:15:24.625Z,3.84
2019-01-17T07:18:31.508Z,3.84
2019-01-17T07:21:38.468Z,3.83
2019-01-17T07:24:45.397Z,3.87
2019-01-17T07:27:52.335Z,3.87
2019-01-17T07:30:59.337Z,3.85
2019-01-17T07:34:06.862Z,3.84
2019-01-17T07:37:13.762Z,3.85
2019-01-17T07:40:20.680Z,3.83
2019-01-17T07:43:27.652Z,3.90
2019-01-17T07:46:34.573Z,3.85
2019-01-17T07:49:41.441Z,3.88
2019-01-17T07:52:48.891Z,3.82
2019-01-17T07:55:55.817Z,3.86
2019-01-17T07:59:03.217Z,3.91
2019-01-17T08:02:10.348Z,3.98
2019-01-17T08:05:17.445Z,3.94
2019-01-17T08:08:24.499Z,3.95
2019-01-17T08:11:31.416Z,4.02
2019-01-17T08:14:38.328Z,3.97
2019-01-17T08:17:45.757Z,3.98
2019-01-17T08:20:53.602Z,4.00
2019-01-17T08:24:00.522Z,4.00
2019-01-17T08:27:07.684Z,3.97
2019-01-17T08:30:18.055Z,3.97
2019-01-17T08:33:25.052Z,3.97
2019-01-17T08:36:32.015Z,3.95
2019-01-17T08:39:39.007Z,3.96
2019-01-17T08:42:46.038Z,3.98
2019-01-17T08:45:52.925Z,4.03
2019-01-17T08:48:59.835Z,3.97
2019-01-17T08:52:09.853Z,3.96
2019-01-17T08:55:17.070Z,3.98
2019-01-17T08:58:23.965Z,3.99
2019-01-17T09:01:30.891Z,3.99
2019-01-17T09:04:37.766Z,4.05
2019-01-17T09:07:44.804Z,4.11
2019-01-17T09:10:51.688Z,4.10
2019-01-17T09:13:58.620Z,4.10
2019-01-17T09:17:05.862Z,4.07
2019-01-17T09:20:14.827Z,4.09
2019-01-17T09:23:21.719Z,4.07
2019-01-17T09:26:31.170Z,4.04
2019-01-17T09:29:38.060Z,4.07
2019-01-17T09:32:45.037Z,4.06
2019-01-17T09:35:51.905Z,4.06
2019-01-17T09:38:58.835Z,4.06
2019-01-17T09:42:08.139Z,4.07
2019-01-17T09:45:15.678Z,4.05
2019-01-17T09:48:22.571Z,4.07
2019-01-17T09:51:29.538Z,4.10
2019-01-17T09:54:36.671Z,4.16
2019-01-17T09:57:44.650Z,4.14
2019-01-17T10:00:51.540Z,4.17
2019-01-17T10:03:58.613Z,4.22
2019-01-17T10:07:06.297Z,4.22
2019-01-17T10:10:16.271Z,4.31
2019-01-17T10:13:23.138Z,4.38
2019-01-17T10:16:45.457Z,4.43
2019-01-17T10:20:49.151Z,4.44
2019-01-17T10:24:47.698Z,4.58
2019-01-17T10:29:05.693Z,4.70
2019-01-17T10:32:47.462Z,4.80
2019-01-17T10:36:22.144Z,4.93
2019-01-17T10:40:49.522Z,4.94
2019-01-17T10:44:57.187Z,5.00
2019-01-17T10:49:09.945Z,5.02
2019-01-17T10:53:13.100Z,5.07
2019-01-17T10:57:20.058Z,4.98
2019-01-17T11:01:35.421Z,5.00
2019-01-17T11:05:32.809Z,4.96
2019-01-17T11:09:14.359Z,4.98
2019-01-17T11:13:00.745Z,4.96
2019-01-17T11:17:22.198Z,4.91
2019-01-17T11:21:31.484Z,4.93
2019-01-17T11:25:44.207Z,4.98
2019-01-17T11:29:44.398Z,5.14
2019-01-17T11:33:34.538Z,5.10
2019-01-17T11:37:48.400Z,5.05
2019-01-17T11:41:42.071Z,5.03
2019-01-17T11:45:36.736Z,4.98
2019-01-17T11:49:31.175Z,4.97
2019-01-17T11:53:41.293Z,4.91
2019-01-17T11:57:51.431Z,4.91
2019-01-17T12:01:34.940Z,4.87
2019-01-17T12:04:42.766Z,4.84
2019-01-17T12:07:49.740Z,4.82
2019-01-17T12:10:56.618Z,4.83
2019-01-17T12:14:03.913Z,4.83
2019-01-17T12:17:11.162Z,4.82
2019-01-17T12:20:18.079Z,4.82
2019-01-17T12:23:26.941Z,4.85
2019-01-17T12:26:33.985Z,4.87
2019-01-17T12:29:40.954Z,4.92
2019-01-17T12:32:47.855Z,4.88
2019-01-17T12:35:54.742Z,4.89
2019-01-17T12:39:02.922Z,4.88
2019-01-17T12:42:09.888Z,4.90
2019-01-17T12:45:16.812Z,4.88
2019-01-17T12:48:23.691Z,4.89
2019-01-17T12:51:30.591Z,4.90
2019-01-17T12:54:37.474Z,4.85
2019-01-17T12:57:44.460Z,4.86
2019-01-17T13:00:51.452Z,4.83
2019-01-17T13:03:58.375Z,4.84
2019-01-17T13:07:07.948Z,4.85
2019-01-17T13:10:16.389Z,4.83
2019-01-17T13:13:23.732Z,4.90
2019-01-17T13:16:30.790Z,4.89
2019-01-17T13:19:37.673Z,4.89
2019-01-17T13:22:44.629Z,4.92
2019-01-17T13:25:52.647Z,4.91
2019-01-17T13:28:59.573Z,5.07
2019-01-17T13:32:07.976Z,5.22
2019-01-17T13:35:15.549Z,5.38
2019-01-17T13:38:22.502Z,5.32
2019-01-17T13:41:29.432Z,5.40
2019-01-17T13:44:36.389Z,5.33
2019-01-17T13:47:43.317Z,5.25
2019-01-17T13:50:50.312Z,5.22
2019-01-17T13:53:57.236Z,5.21
2019-01-17T13:57:07.650Z,5.07
2019-01-17T14:00:20.156Z,4.99
2019-01-17T14:03:27.086Z,4.89
2019-01-17T14:06:34.002Z,4.99
2019-01-17T14:09:41.069Z,5.10
2019-01-17T14:12:47.971Z,4.93
2019-01-17T14:15:54.843Z,4.77
2019-01-17T14:19:02.147Z,4.96
2019-01-17T14:22:09.603Z,5.04
2019-01-17T14:25:16.598Z,5.17
2019-01-17T14:28:23.790Z,5.14
2019-01-17T14:31:30.737Z,5.20
2019-01-17T14:34:37.617Z,5.28
2019-01-17T14:37:44.547Z,5.17
2019-01-17T14:40:51.527Z,5.31
2019-01-17T14:43:58.463Z,5.19
2019-01-17T14:47:05.798Z,5.30
2019-01-17T14:50:17.629Z,5.23
2019-01-17T14:53:24.502Z,5.26
2019-01-17T14:56:31.495Z,5.17
2019-01-17T14:59:38.459Z,5.23
2019-01-17T15:02:45.427Z,5.25
2019-01-17T15:05:52.403Z,5.12
2019-01-17T15:08:59.393Z,5.10
2019-01-17T15:12:06.321Z,5.23
2019-01-17T15:15:13.337Z,5.12
2019-01-17T15:18:20.254Z,5.17
2019-01-17T15:21:27.198Z,5.27
2019-01-17T15:24:34.102Z,5.00
2019-01-17T15:27:41.127Z,5.14
2019-01-17T15:30:48.416Z,4.77
2019-01-17T15:33:55.347Z,4.77
2019-01-17T15:37:02.321Z,4.60
2019-01-17T15:40:14.515Z,4.55
2019-01-17T15:43:21.547Z,4.57
2019-01-17T15:46:28.462Z,4.41
2019-01-17T15:49:35.339Z,4.28
2019-01-17T15:52:42.637Z,4.33
2019-01-17T15:55:50.471Z,4.30
2019-01-17T15:58:57.821Z,4.36
2019-01-17T16:02:05.167Z,4.23
2019-01-17T16:05:12.116Z,4.07
2019-01-17T16:08:19.061Z,4.05
2019-01-17T16:11:26.031Z,4.20
2019-01-17T16:14:32.900Z,4.17
2019-01-17T16:17:39.822Z,3.99
2019-01-17T16:20:46.695Z,4.05
2019-01-17T16:23:53.677Z,3.82
2019-01-17T16:27:01.005Z,4.04
2019-01-17T16:30:16.633Z,3.93
2019-01-17T16:33:23.774Z,3.86
2019-01-17T16:36:31.912Z,4.19
2019-01-17T16:39:41.162Z,3.92
2019-01-17T16:42:48.090Z,4.01
2019-01-17T16:45:55.106Z,4.26
2019-01-17T16:49:02.292Z,4.04
2019-01-17T16:52:09.187Z,4.13
2019-01-17T16:55:16.572Z,4.20
2019-01-17T16:58:23.447Z,4.23
2019-01-17T17:01:30.354Z,4.12
2019-01-17T17:04:37.246Z,4.16
2019-01-17T17:07:44.175Z,4.16
2019-01-17T17:10:51.325Z,3.95
2019-01-17T17:14:00.893Z,3.83
2019-01-17T17:17:07.861Z,3.77
2019-01-17T17:20:17.922Z,3.69
2019-01-17T17:23:24.812Z,3.54
2019-01-17T17:26:31.719Z,3.50
2019-01-17T17:29:38.608Z,3.40
2019-01-17T17:32:45.548Z,3.35
2019-01-17T17:35:52.832Z,3.37
2019-01-17T17:39:01.388Z,3.38
2019-01-17T17:42:09.873Z,3.30
2019-01-17T17:45:16.782Z,3.25
2019-01-17T17:48:24.391Z,3.20
2019-01-17T17:51:31.421Z,3.09
2019-01-17T17:54:38.323Z,3.06
2019-01-17T17:57:45.233Z,3.00
2019-01-17T18:01:06.389Z,3.08
2019-01-17T18:04:13.293Z,3.09
2019-01-17T18:07:20.170Z,3.14
2019-01-17T18:10:27.146Z,3.30
2019-01-17T18:13:34.038Z,3.28
2019-01-17T18:16:40.947Z,3.37
2019-01-17T18:19:47.969Z,3.36
2019-01-17T18:22:57.308Z,3.38
2019-01-17T18:26:04.891Z,3.41
2019-01-17T18:29:12.038Z,3.44
2019-01-17T18:32:19.007Z,3.44
2019-01-17T18:35:25.951Z,3.45
2019-01-17T18:38:33.234Z,3.45
2019-01-17T18:41:40.284Z,3.47
2019-01-17T18:44:47.201Z,3.47
2019-01-17T18:47:54.108Z,3.49
2019-01-17T18:51:04.130Z,3.42
2019-01-17T18:54:11.224Z,1.74
2019-01-17T18:57:19.084Z,0.92
2019-01-17T19:00:32.251Z,0.88
2019-01-17T19:03:39.296Z,0.80
2019-01-17T19:06:46.221Z,0.92
2019-01-17T19:09:53.295Z,0.90
2019-01-17T19:13:02.725Z,1.04
2019-01-17T19:16:09.666Z,1.01
2019-01-17T19:19:16.707Z,1.14
2019-01-17T19:22:23.654Z,1.17
2019-01-17T19:25:30.754Z,1.20
2019-01-17T19:28:37.667Z,1.40
2019-01-17T19:31:44.611Z,1.61
2019-01-17T19:34:51.590Z,1.60
2019-01-17T19:38:00.289Z,1.61
2019-01-17T19:41:07.652Z,1.56
2019-01-17T19:44:14.788Z,1.73
2019-01-17T19:47:21.727Z,1.72
2019-01-17T19:50:31.897Z,1.80
2019-01-17T19:53:38.789Z,1.85
2019-01-17T19:56:45.713Z,1.89
2019-01-17T19:59:52.592Z,1.98
2019-01-17T20:03:02.552Z,2.33
2019-01-17T20:06:09.540Z,2.43
2019-01-17T20:09:16.732Z,2.35
2019-01-17T20:12:23.590Z,2.43
2019-01-17T20:15:30.700Z,2.53
2019-01-17T20:18:37.952Z,2.68
2019-01-17T20:21:45.008Z,2.64
2019-01-17T20:24:51.925Z,2.69
2019-01-17T20:27:59.372Z,2.25
2019-01-17T20:31:06.244Z,2.56
2019-01-17T20:34:13.244Z,2.73
2019-01-17T20:37:20.141Z,2.39
2019-01-17T20:40:27.084Z,2.29
2019-01-17T20:43:35.548Z,2.18
2019-01-17T20:46:42.661Z,2.36
2019-01-17T20:49:49.551Z,2.37
2019-01-17T20:52:59.459Z,2.49
2019-01-17T20:56:06.348Z,2.21
2019-01-17T20:59:13.613Z,2.06
2019-01-17T21:02:22.031Z,2.21
2019-01-17T21:05:28.990Z,2.39
2019-01-17T21:08:37.107Z,2.21
2019-01-17T21:11:44.102Z,2.41
2019-01-17T21:14:51.186Z,2.13
2019-01-17T21:18:01.212Z,2.02
2019-01-17T21:21:08.108Z,2.39
2019-01-17T21:24:16.135Z,2.26
2019-01-17T21:27:23.012Z,2.33
2019-01-17T21:30:30.032Z,2.12
2019-01-17T21:33:36.968Z,2.01
2019-01-17T21:36:43.960Z,2.00
2019-01-17T21:39:50.832Z,1.88
2019-01-17T21:42:57.976Z,1.86
2019-01-17T21:46:05.266Z,2.22
2019-01-17T21:49:12.224Z,2.23
2019-01-17T21:52:19.162Z,2.12
2019-01-17T21:55:27.159Z,2.02
2019-01-17T21:58:34.121Z,1.92
2019-01-17T22:01:44.093Z,2.07
2019-01-17T22:04:51.008Z,1.90
2019-01-17T22:07:58.210Z,1.90
2019-01-17T22:11:05.094Z,1.80
2019-01-17T22:14:13.200Z,1.84
2019-01-17T22:17:20.102Z,1.76
2019-01-17T22:20:27.041Z,1.80
2019-01-17T22:23:33.909Z,1.72
2019-01-17T22:26:42.995Z,1.71
2019-01-17T22:29:49.980Z,1.67
2019-01-17T22:32:56.979Z,1.47
2019-01-17T22:36:04.013Z,1.51
2019-01-17T22:39:11.013Z,1.38
2019-01-17T22:42:18.009Z,0.96
2019-01-17T22:45:30.804Z,0.90
2019-01-17T22:48:38.051Z,0.83
2019-01-17T22:51:44.963Z,0.71
2019-01-17T22:54:51.833Z,0.59
2019-01-17T22:57:59.288Z,0.23
2019-01-17T23:01:22.439Z,0.12
2019-01-17T23:04:29.352Z,0.22
2019-01-17T23:07:37.359Z,0.27
2019-01-17T23:10:44.394Z,0.40
2019-01-17T23:13:51.354Z,0.31
2019-01-17T23:16:58.578Z,0.34
2019-01-17T23:20:06.304Z,0.29
2019-01-17T23:23:13.251Z,0.38
2019-01-17T23:26:20.141Z,0.28
2019-01-17T23:29:27.062Z,0.39
2019-01-17T23:32:33.928Z,0.21
2019-01-17T23:35:40.850Z,0.43
2019-01-17T23:38:47.908Z,0.43
2019-01-17T23:41:55.160Z,0.26
2019-01-17T23:45:02.381Z,0.45
2019-01-17T23:48:09.362Z,0.08
2019-01-17T23:51:17.410Z,0.12
2019-01-17T23:54:24.339Z,-0.06
2019-01-17T23:57:31.231Z,0.09
